createdAt,value
2023-05-19T10:24:39.093Z,102199.44
2023-05-19T10:27:09.140Z,102205.28
2023-05-19T10:29:39.949Z,102198.31
2023-05-19T10:32:15.811Z,102197.63
2023-05-19T10:35:03.449Z,102197.81
2023-05-19T10:38:00.501Z,102198.81
2023-05-19T10:40:30.524Z,102198.34
2023-05-19T10:43:36.153Z,102195.59
2023-05-19T10:46:04.467Z,102198.00
2023-05-19T10:48:33.846Z,102189.94
2023-05-19T10:51:00.884Z,102187.13
2023-05-19T10:53:34.256Z,102189.25
2023-05-19T10:56:06.904Z,102180.91
2023-05-19T10:58:45.670Z,102173.13
2023-05-19T11:01:20.029Z,102172.13
2023-05-19T11:03:52.360Z,102182.88
2023-05-19T11:06:38.516Z,102179.34
2023-05-19T11:09:15.657Z,102178.25
2023-05-19T11:11:54.818Z,102184.44
2023-05-19T11:14:23.270Z,102183.88
2023-05-19T11:16:51.375Z,102177.91
2023-05-19T11:19:19.997Z,102163.22
2023-05-19T11:21:55.013Z,102164.97
2023-05-19T11:24:35.917Z,102152.88
2023-05-19T11:27:33.589Z,102162.25
2023-05-19T11:31:28.131Z,102164.13
2023-05-19T11:33:54.668Z,102156.59
2023-05-19T11:36:22.706Z,102152.13
2023-05-19T11:38:49.340Z,102155.66
2023-05-19T11:41:17.259Z,102152.88
2023-05-19T11:43:47.462Z,102155.13
2023-05-19T11:46:14.991Z,102158.63
2023-05-19T11:48:41.486Z,102152.81
2023-05-19T11:51:08.145Z,102151.75
2023-05-19T11:53:36.063Z,102139.88
2023-05-19T11:56:06.066Z,102155.56
2023-05-19T11:58:32.561Z,102157.66
2023-05-19T12:01:03.950Z,102157.78
2023-05-19T12:03:33.058Z,102151.50
2023-05-19T12:05:59.866Z,102154.22
2023-05-19T12:08:27.440Z,102162.88
2023-05-19T12:10:54.085Z,102151.78
2023-05-19T12:13:22.716Z,102150.94
2023-05-19T12:15:51.796Z,102151.28
2023-05-19T12:18:19.287Z,102159.22
2023-05-19T12:20:46.064Z,102148.97
2023-05-19T12:23:12.798Z,102154.88
2023-05-19T12:25:39.410Z,102150.13
2023-05-19T12:28:05.914Z,102144.53
2023-05-19T12:30:33.985Z,102148.00
2023-05-19T12:33:01.804Z,102146.81
2023-05-19T12:35:30.097Z,102143.16
2023-05-19T12:37:56.649Z,102142.81
2023-05-19T12:40:23.278Z,102136.47
2023-05-19T12:42:52.059Z,102136.06
2023-05-19T12:45:20.775Z,102142.19
2023-05-19T12:47:50.460Z,102136.97
2023-05-19T12:50:16.996Z,102133.13
2023-05-19T12:52:47.289Z,102128.22
2023-05-19T12:55:16.282Z,102118.91
2023-05-19T12:57:45.041Z,102124.44
2023-05-19T13:00:22.730Z,102130.22
2023-05-19T13:03:00.052Z,102120.47
2023-05-19T13:05:31.264Z,102118.59
2023-05-19T13:07:58.407Z,102128.19
2023-05-19T13:10:28.309Z,102124.22
2023-05-19T13:12:55.739Z,102119.81
2023-05-19T13:15:24.173Z,102122.59
2023-05-19T13:17:51.150Z,102121.03
2023-05-19T13:20:17.853Z,102129.78
2023-05-19T13:22:44.450Z,102117.91
2023-05-19T13:25:11.059Z,102108.34
2023-05-19T13:27:40.360Z,102108.28
2023-05-19T13:30:07.513Z,102112.19
2023-05-19T13:32:34.384Z,102111.78
2023-05-19T13:35:01.757Z,102111.78
2023-05-19T13:37:28.319Z,102110.97
2023-05-19T13:39:55.576Z,102108.91
2023-05-19T13:42:22.215Z,102101.72
2023-05-19T13:44:48.875Z,102102.06
2023-05-19T13:47:15.733Z,102103.28
2023-05-19T13:49:42.253Z,102102.56
2023-05-19T13:52:08.829Z,102103.38
2023-05-19T13:54:35.905Z,102094.69
2023-05-19T13:57:06.170Z,102100.00
2023-05-19T13:59:33.185Z,102107.38
2023-05-19T14:01:59.703Z,102113.84
2023-05-19T14:04:26.408Z,102111.47
2023-05-19T14:06:52.968Z,102102.38
2023-05-19T14:09:19.758Z,102109.13
2023-05-19T14:11:47.408Z,102103.56
2023-05-19T14:14:13.963Z,102109.56
2023-05-19T14:16:41.174Z,102101.25
2023-05-19T14:19:08.237Z,102108.00
2023-05-19T14:21:34.799Z,102113.19
2023-05-19T14:24:01.691Z,102110.41
2023-05-19T14:26:29.411Z,102111.28
2023-05-19T14:28:57.089Z,102106.91
2023-05-19T14:31:23.734Z,102104.59
2023-05-19T14:33:51.026Z,102099.81
2023-05-19T14:36:17.710Z,102101.88
2023-05-19T14:38:44.303Z,102099.47
2023-05-19T14:41:10.833Z,102121.25
2023-05-19T14:43:37.348Z,102118.47
2023-05-19T14:46:03.885Z,102116.13
2023-05-19T14:48:30.421Z,102126.09
2023-05-19T14:50:57.004Z,102116.97
2023-05-19T14:53:23.504Z,102121.31
2023-05-19T14:55:50.077Z,102126.88
2023-05-19T14:58:27.790Z,102126.44
2023-05-19T15:00:57.544Z,102105.72
2023-05-19T15:03:24.282Z,102115.41
2023-05-19T15:05:50.914Z,102117.81
2023-05-19T15:08:17.475Z,102116.19
2023-05-19T15:10:48.407Z,102122.81
2023-05-19T15:13:14.828Z,102115.03
2023-05-19T15:15:41.312Z,102122.16
2023-05-19T15:18:07.922Z,102119.47
2023-05-19T15:20:34.688Z,102111.91
2023-05-19T15:23:01.539Z,102105.16
2023-05-19T15:25:28.064Z,102096.75
2023-05-19T15:27:54.587Z,102107.06
2023-05-19T15:30:21.116Z,102103.06
2023-05-19T15:32:47.665Z,102108.28
2023-05-19T15:35:14.272Z,102103.94
2023-05-19T15:37:40.805Z,102111.06
2023-05-19T15:40:07.709Z,102104.38
2023-05-19T15:42:34.212Z,102107.94
2023-05-19T15:45:00.892Z,102107.56
2023-05-19T15:47:27.404Z,102098.88
2023-05-19T15:49:54.020Z,102104.06
2023-05-19T15:52:20.748Z,102116.75
2023-05-19T15:54:48.637Z,102117.53
2023-05-19T15:57:15.172Z,102105.66
2023-05-19T15:59:41.663Z,102106.47
2023-05-19T16:02:08.462Z,102107.22
2023-05-19T16:04:34.998Z,102100.09
2023-05-19T16:07:01.486Z,102096.88
2023-05-19T16:09:28.037Z,102102.44
2023-05-19T16:11:54.543Z,102101.66
2023-05-19T16:14:21.062Z,102100.09
2023-05-19T16:16:47.660Z,102104.44
2023-05-19T16:19:14.299Z,102104.91
2023-05-19T16:21:40.985Z,102094.22
2023-05-19T16:24:07.651Z,102095.78
2023-05-19T16:26:34.510Z,102094.09
2023-05-19T16:29:01.015Z,102096.09
2023-05-19T16:31:27.590Z,102086.56
2023-05-19T16:33:54.145Z,102083.00
2023-05-19T16:36:22.692Z,102085.34
2023-05-19T16:38:49.232Z,102089.69
2023-05-19T16:41:15.725Z,102091.28
2023-05-19T16:43:42.283Z,102092.47
2023-05-19T16:46:09.876Z,102094.06
2023-05-19T16:48:36.589Z,102093.69
2023-05-19T16:51:03.140Z,102092.47
2023-05-19T16:53:29.705Z,102091.69
2023-05-19T16:55:56.459Z,102099.66
2023-05-19T16:58:23.166Z,102100.13
2023-05-19T17:00:51.954Z,102101.25
2023-05-19T17:03:18.851Z,102102.47
2023-05-19T17:05:45.728Z,102099.34
2023-05-19T17:08:12.666Z,102096.16
2023-05-19T17:10:39.325Z,102106.94
2023-05-19T17:13:06.037Z,102105.38
2023-05-19T17:15:33.599Z,102109.25
2023-05-19T17:18:00.208Z,102109.72
2023-05-19T17:20:26.777Z,102107.38
2023-05-19T17:22:53.272Z,102112.50
2023-05-19T17:25:19.783Z,102105.03
2023-05-19T17:27:46.276Z,102117.72
2023-05-19T17:30:13.600Z,102101.88
2023-05-19T17:32:40.236Z,102105.88
2023-05-19T17:35:07.217Z,102108.22
2023-05-19T17:37:33.708Z,102109.88
2023-05-19T17:40:00.318Z,102112.66
2023-05-19T17:42:27.312Z,102115.84
2023-05-19T17:44:53.912Z,102114.19
2023-05-19T17:47:21.031Z,102113.84
2023-05-19T17:49:47.906Z,102113.84
2023-05-19T17:52:15.881Z,102113.06
2023-05-19T17:54:42.542Z,102113.84
2023-05-19T17:57:12.690Z,102112.91
2023-05-19T17:59:39.319Z,102119.41
2023-05-19T18:02:06.823Z,102102.38
2023-05-19T18:04:33.665Z,102104.81
2023-05-19T18:07:00.653Z,102113.47
2023-05-19T18:09:29.038Z,102109.88
2023-05-19T18:11:56.282Z,102113.84
2023-05-19T18:14:22.857Z,102106.38
2023-05-19T18:16:49.988Z,102107.09
2023-05-19T18:19:16.692Z,102111.44
2023-05-19T18:21:43.204Z,102115.41
2023-05-19T18:24:09.706Z,102118.19
2023-05-19T18:26:41.528Z,102118.19
2023-05-19T18:29:11.315Z,102121.63
2023-05-19T18:31:38.036Z,102118.59
2023-05-19T18:34:04.640Z,102122.59
2023-05-19T18:36:31.534Z,102124.16
2023-05-19T18:38:59.404Z,102116.63
2023-05-19T18:41:26.146Z,102118.69
2023-05-19T18:43:52.692Z,102125.78
2023-05-19T18:46:19.332Z,102125.78
2023-05-19T18:48:46.076Z,102123.81
2023-05-19T18:51:15.658Z,102126.59
2023-05-19T18:53:42.201Z,102134.50
2023-05-19T18:56:10.880Z,102129.22
2023-05-19T18:58:37.471Z,102122.59
2023-05-19T19:01:05.047Z,102128.16
2023-05-19T19:03:31.684Z,102121.81
2023-05-19T19:05:59.294Z,102125.38
2023-05-19T19:08:25.945Z,102124.22
2023-05-19T19:10:53.477Z,102128.22
2023-05-19T19:13:20.000Z,102128.22
2023-05-19T19:15:46.591Z,102127.50
2023-05-19T19:18:13.248Z,102135.81
2023-05-19T19:20:39.796Z,102136.69
2023-05-19T19:23:06.758Z,102137.03
2023-05-19T19:25:33.558Z,102136.25
2023-05-19T19:28:00.929Z,102143.78
2023-05-19T19:30:27.436Z,102139.47
2023-05-19T19:32:54.883Z,102141.78
2023-05-19T19:35:21.733Z,102141.03
2023-05-19T19:37:48.481Z,102133.91
2023-05-19T19:40:15.020Z,102139.47
2023-05-19T19:42:41.710Z,102139.47
2023-05-19T19:45:08.603Z,102131.53
2023-05-19T19:47:35.136Z,102142.28
2023-05-19T19:50:05.407Z,102141.09
2023-05-19T19:52:32.191Z,102137.09
2023-05-19T19:54:58.690Z,102145.84
2023-05-19T19:57:25.556Z,102146.19
2023-05-19T19:59:55.124Z,102146.63
2023-05-19T20:02:21.725Z,102144.63
2023-05-19T20:04:48.406Z,102143.06
2023-05-19T20:07:15.069Z,102147.78
2023-05-19T20:09:41.578Z,102148.63
2023-05-19T20:12:08.256Z,102150.19
2023-05-19T20:14:34.734Z,102157.75
2023-05-19T20:17:01.330Z,102161.28
2023-05-19T20:19:27.984Z,102156.94
2023-05-19T20:21:54.603Z,102162.50
2023-05-19T20:24:21.109Z,102165.25
2023-05-19T20:26:47.642Z,102162.84
2023-05-19T20:29:14.212Z,102166.47
2023-05-19T20:31:41.116Z,102177.56
2023-05-19T20:34:07.694Z,102171.63
2023-05-19T20:36:34.265Z,102176.38
2023-05-19T20:39:00.817Z,102174.00
2023-05-19T20:41:27.358Z,102177.16
2023-05-19T20:43:54.979Z,102174.81
2023-05-19T20:46:21.607Z,102181.16
2023-05-19T20:48:48.166Z,102187.88
2023-05-19T20:51:14.645Z,102174.44
2023-05-19T20:53:41.316Z,102174.44
2023-05-19T20:56:10.370Z,102176.44
2023-05-19T20:58:37.603Z,102176.84
2023-05-19T21:01:04.493Z,102175.63
2023-05-19T21:03:32.046Z,102175.63
2023-05-19T21:05:58.523Z,102175.28
2023-05-19T21:08:25.448Z,102172.16
2023-05-19T21:10:52.321Z,102174.47
2023-05-19T21:13:18.936Z,102178.13
2023-05-19T21:15:45.506Z,102174.13
2023-05-19T21:18:12.453Z,102183.66
2023-05-19T21:20:39.553Z,102183.25
2023-05-19T21:23:06.071Z,102185.66
2023-05-19T21:25:32.580Z,102185.22
2023-05-19T21:27:59.114Z,102187.66
2023-05-19T21:30:25.724Z,102191.63
2023-05-19T21:32:52.325Z,102193.63
2023-05-19T21:35:18.880Z,102192.41
2023-05-19T21:37:45.483Z,102194.41
2023-05-19T21:40:12.403Z,102191.19
2023-05-19T21:42:38.916Z,102197.94
2023-05-19T21:45:06.529Z,102195.19
2023-05-19T21:47:33.116Z,102193.19
2023-05-19T21:49:59.687Z,102193.97
2023-05-19T21:52:26.173Z,102184.09
2023-05-19T21:54:52.717Z,102203.16
2023-05-19T21:57:19.264Z,102196.03
2023-05-19T21:59:45.951Z,102200.78
2023-05-19T22:02:12.471Z,102198.44
2023-05-19T22:04:39.081Z,102206.34
2023-05-19T22:07:06.731Z,102202.41
2023-05-19T22:09:33.329Z,102217.44
2023-05-19T22:11:59.920Z,102215.06
2023-05-19T22:14:26.469Z,102214.66
2023-05-19T22:16:53.179Z,102208.31
2023-05-19T22:19:19.906Z,102210.72
2023-05-19T22:21:46.566Z,102209.53
2023-05-19T22:24:13.039Z,102215.06
2023-05-19T22:26:42.605Z,102215.94
2023-05-19T22:29:12.124Z,102219.88
2023-05-19T22:31:38.874Z,102213.56
2023-05-19T22:34:05.618Z,102213.16
2023-05-19T22:36:32.143Z,102211.56
2023-05-19T22:38:58.642Z,102215.53
2023-05-19T22:41:25.173Z,102211.56
2023-05-19T22:43:51.692Z,102214.34
2023-05-19T22:46:18.203Z,102210.00
2023-05-19T22:48:44.742Z,102214.34
2023-05-19T22:51:11.248Z,102208.03
2023-05-19T22:53:37.770Z,102208.78
2023-05-19T22:56:04.434Z,102208.03
2023-05-19T22:58:30.998Z,102207.59
2023-05-19T23:00:57.532Z,102207.59
2023-05-19T23:03:24.084Z,102211.56
2023-05-19T23:05:50.569Z,102211.16
2023-05-19T23:08:17.062Z,102206.00
2023-05-19T23:10:43.737Z,102196.91
2023-05-19T23:13:11.847Z,102202.47
2023-05-19T23:15:38.367Z,102204.03
2023-05-19T23:18:07.269Z,102206.00
2023-05-19T23:20:34.364Z,102204.84
2023-05-19T23:23:01.394Z,102204.44
2023-05-19T23:25:27.928Z,102204.44
2023-05-19T23:27:54.595Z,102202.13
2023-05-19T23:30:21.138Z,102202.88
2023-05-19T23:32:47.653Z,102211.22
2023-05-19T23:35:16.512Z,102201.63
2023-05-19T23:37:43.034Z,102200.91
2023-05-19T23:40:09.819Z,102202.88
2023-05-19T23:42:36.806Z,102204.09
2023-05-19T23:45:03.721Z,102200.13
2023-05-19T23:47:30.345Z,102202.88
2023-05-19T23:49:56.865Z,102209.22
2023-05-19T23:52:23.407Z,102205.66
2023-05-19T23:54:50.059Z,102204.44
2023-05-19T23:57:16.568Z,102207.22
2023-05-19T23:59:43.169Z,102200.91
